NYN weather

Nyngan Airport
New South Wales, Australia

Public forecast

Using degrees Celsius for public forecast. Weather courtesy of forecast.io.

METAR (pilot weather report)

Closest report is Coonamble Airport, 69.2 nm (128.1 km) ENE. Retrieved 2019/04/23 15:00 UTC (38 minutes ago):

YCNM 231500Z AUTO 04004KT //// // ////// 19/12 Q1022

TAF (pilot weather forecast)

Forecast is more than 6 hours old.

Closest forecast is Dubbo City Regional Airport, 80.6 nm (149.2 km) ESE. Retrieved 2019/04/23 06:36 UTC (9 hours ago):

TAF YSDU 230452Z 2306/2324 08012KT 9999 SCT045